»·PEaware :: N654SW KAPA-KASE

N654SW :: KAPA-KASE

FLIGHT INFORMATION

Flight Status: Arrived
Operator: Privately registered:
United States
More flights under this callsign
Pilot: Sergei F. (8485)
Aircraft: BOEING 737-300
(B733)
More flights by this aircraft type
Origin: KAPA Centennial
United States
Destination: KASE Aspen-Pitkin Co/Sardy
United States
More flights between these airports :: More routes between these airports
Route: ROCKI5 DBL
File this flight plan on PilotEdge
Remarks:
Altitude:
(Current/Filed)
16,000ft
Speed:
(Current/Filed)
400kts
Departed: 31-Oct-20 08:42 PM
Arrived: 31-Oct-20 09:13 PM
Distance/Time
Traveled:
96nm/0:31
Distance/Time
To Go:
Arrived

Flight Plot

Page will automatically refresh every two minutes.

Flight plan parsing failed; only flown route is shown


Map Options




Map Legend


Flown Route
Filed Route
Departure Airport
Arrival Airport
Navaid (VOR, NDB)
Fix

Horizontal Profiles

Position Reports

Time Latitude Longitude Heading Altitude Ground
Speed
31-Oct-20 20:18 39.579459 -104.848668 88 5891ft 0kts
31-Oct-20 20:19 39.579459 -104.848668 88 5891ft 0kts
31-Oct-20 20:20 39.579459 -104.848668 88 5891ft 0kts
31-Oct-20 20:21 39.579459 -104.848668 88 5891ft 0kts
31-Oct-20 20:22 39.579459 -104.848668 88 5891ft 0kts
31-Oct-20 20:23 39.579459 -104.848668 88 5891ft 0kts
31-Oct-20 20:24 39.579459 -104.848668 88 5891ft 0kts
31-Oct-20 20:25 39.579459 -104.848668 88 5891ft 0kts
31-Oct-20 20:26 39.579459 -104.848668 88 5891ft 0kts
31-Oct-20 20:27 39.579459 -104.848668 88 5891ft 0kts
31-Oct-20 20:28 39.579459 -104.848668 88 5891ft 0kts
31-Oct-20 20:29 39.579459 -104.848723 88 5891ft 2kts
31-Oct-20 20:30 39.579719 -104.849019 178 5891ft 0kts
31-Oct-20 20:31 39.579718 -104.849019 178 5891ft 0kts
31-Oct-20 20:32 39.579718 -104.849019 178 5891ft 0kts
31-Oct-20 20:33 39.579718 -104.849019 178 5891ft 0kts
31-Oct-20 20:34 39.579718 -104.849019 178 5891ft 0kts
31-Oct-20 20:35 39.579666 -104.849017 178 5891ft 1kts
31-Oct-20 20:36 39.579134 -104.849769 327 5891ft 4kts
31-Oct-20 20:37 39.581485 -104.849940 357 5891ft 12kts
31-Oct-20 20:38 39.583828 -104.850048 357 5891ft 0kts
31-Oct-20 20:39 39.583967 -104.850065 343 5891ft 2kts
31-Oct-20 20:40 39.583851 -104.851445 185 5891ft 0kts
31-Oct-20 20:41 39.572286 -104.850909 177 5892ft 148kts
31-Oct-20 20:42 39.528095 -104.850114 180 8088ft 183kts
31-Oct-20 20:43 39.467526 -104.847926 180 8598ft 238kts
31-Oct-20 20:44 39.394584 -104.844344 180 10196ft 273kts
31-Oct-20 20:45 39.316060 -104.839029 180 12214ft 293kts
31-Oct-20 20:46 39.248719 -104.876745 256 14246ft 295kts
31-Oct-20 20:47 39.287333 -104.969614 318 15952ft 333kts
31-Oct-20 20:48 39.360365 -105.047522 318 15993ft 342kts
31-Oct-20 20:49 39.426161 -105.134419 301 16001ft 341kts
31-Oct-20 20:50 39.478448 -105.236743 301 15991ft 341kts
31-Oct-20 20:51 39.529982 -105.340443 301 15991ft 341kts
31-Oct-20 20:52 39.581193 -105.444124 301 15998ft 341kts
31-Oct-20 20:53 39.632290 -105.547923 301 16029ft 340kts
31-Oct-20 20:54 39.682902 -105.651382 296 16067ft 339kts
31-Oct-20 20:55 39.670173 -105.766814 253 16080ft 337kts
31-Oct-20 20:56 39.645626 -105.883985 255 16075ft 337kts
31-Oct-20 20:57 39.622118 -106.001780 255 16076ft 337kts
31-Oct-20 20:58 39.598619 -106.119392 255 16078ft 337kts
31-Oct-20 20:59 39.574953 -106.237210 255 16080ft 338kts
31-Oct-20 21:00 39.551103 -106.355270 255 16081ft 338kts
31-Oct-20 21:01 39.527301 -106.472424 255 16075ft 326kts
31-Oct-20 21:02 39.506642 -106.573695 255 16057ft 263kts
31-Oct-20 21:03 39.487899 -106.665550 255 16009ft 265kts
31-Oct-20 21:04 39.470597 -106.754701 256 15263ft 250kts
31-Oct-20 21:05 39.454424 -106.839524 256 14010ft 232kts
31-Oct-20 21:06 39.439886 -106.915796 248 13124ft 211kts
31-Oct-20 21:07 39.397923 -106.953659 183 12592ft 191kts
31-Oct-20 21:08 39.349694 -106.931077 159 11499ft 182kts
31-Oct-20 21:09 39.304501 -106.908448 161 10084ft 169kts
31-Oct-20 21:10 39.265305 -106.889097 161 8492ft 135kts
31-Oct-20 21:11 39.231601 -106.872819 161 7695ft 123kts
31-Oct-20 21:12 39.219033 -106.866699 134 7782ft 7kts
31-Oct-20 21:13 39.219203 -106.864983 73 7782ft 3kts
31-Oct-20 21:14 39.219262 -106.864728 73 7782ft 0kts
31-Oct-20 21:15 39.219262 -106.864728 73 7782ft 0kts
31-Oct-20 21:16 39.219262 -106.864728 73 7782ft 0kts

Navigation Log

Ident Type
Flight plan parsing failed, navigation log unavailable